Neilston, United Kingdom
Current Conditions -  °F | °C
As of 1:50 PM on Friday 24 Oct 2014 (Local Time) from EGPF Reporting Station
Light Rain Light Rain  
Wind Chill: 10°   Ceiling: 4900
Heat Index: 10°   Visibility: 6mi
Dew Point:   Wind: 15mph
Humidity: 87%   Direction: 230°SW
Pressure: 29.74"   Gusts: NA
Location:  55.79°N, 4.43°W
Report Text: EGPF 241250Z AUTO 23013KT 9999 -RA OVC049/// //////TCU 10/08 Q1007
Loading
Personal Weather Stations






























Interactive Weather Map
Tropical Storm Tracking
New forecast layout! Learn more

10-Day Weather Forecast

Advertisements
Track Severe Weather on mobile